Palessa — V2IA7 — position and weather

sailwx.info

Track history (hours):
 
Tides and Currents Weather Stations Pressure Air Temp Water Temp Dewpoint Dewpoint Depression Visibility Wind Speed Wind Dir Waves Ship Positions

Palessa

Last reported at 2015-May-15 07:33 UTC. Time now 2015-May-26 11:49 UTC.
Position N 20°25' W 018°59'.
Warning: this ship's position is 11 days out of date.

Length 118 m; draft 5.3 m.

Type: Cargo ship. MMSI: 304255000.

Date/timePositionNaut miles runAvg speedWind from/ knotsBaromVisibWave heightAir tempDewpointWater temp
2015-May-15 07:33N 20°25' W 018°59'4213.9
2015-May-15 04:33N 21°02' W 018°40'  
2015-May-13 00:08N 30°50' W 011°33'1314.8
2015-May-12 23:14N 31°02' W 011°25'1114.8
2015-May-12 22:30N 31°11' W 011°19'1414.7
2015-May-12 21:33N 31°23' W 011°11'1514.4
2015-May-12 20:31N 31°36' W 011°02'3414.4
2015-May-12 18:09N 32°05' W 010°42'914.2
2015-May-12 17:31N 32°13' W 010°36'2813.8
2015-May-12 15:31N 32°37' W 010°20'1413.7
2015-May-12 14:29N 32°48' W 010°10'1314.0
2015-May-12 13:33N 32°59' W 010°01'2813.9
2015-May-12 11:30N 33°21' W 009°40'1313.9
2015-May-12 10:33N 33°29' W 009°28'1413.7
2015-May-12 09:33N 33°38' W 009°15'1413.9
2015-May-12 08:34N 33°47' W 009°02'1413.9
2015-May-12 07:33N 33°56' W 008°49'1413.9
2015-May-12 06:33N 34°05' W 008°36'1413.9
2015-May-12 05:33N 34°13' W 008°23'1413.6
2015-May-12 04:30N 34°23' W 008°10'1314.0
2015-May-12 03:33N 34°31' W 007°58'1413.6
2015-May-12 02:32N 34°40' W 007°45'2813.5
2015-May-12 00:27N 34°58' W 007°18'1313.7
2015-May-11 23:31N 35°06' W 007°06'9613.8
2015-May-11 16:31N 35°60' W 005°28'9 6.5
2015-May-11 15:08N 36°07' W 005°21'0 0.1
2015-May-11 14:32N 36°07' W 005°21'0 0.0
2015-May-11 12:29N 36°07' W 005°21'0 0.1
2015-May-11 11:29N 36°07' W 005°21'0 0.1
2015-May-11 09:33N 36°07' W 005°21'0 0.0
2015-May-11 08:30N 36°07' W 005°21'0 0.1
2015-May-11 07:06N 36°07' W 005°21'0 0.1
2015-May-11 06:25N 36°07' W 005°21'0 0.0
2015-May-11 05:33N 36°07' W 005°21'0 0.0
2015-May-11 04:33N 36°07' W 005°21'0 0.1
2015-May-11 03:30N 36°07' W 005°21'5 4.9
2015-May-11 02:33N 36°06' W 005°16'11512.8
2015-May-10 17:33N 36°26' W 002°55'1414.1
2015-May-10 16:33N 36°26' W 002°38'1414.0
2015-May-10 15:34N 36°26' W 002°20'1413.8
2015-May-10 14:32N 36°27' W 002°03'1413.9
2015-May-10 13:31N 36°29' W 001°45'4214.3
2015-May-10 10:34N 36°36' W 000°53'3014.3
2015-May-10 08:30N 36°40' W 000°17'1313.9
2015-May-10 07:33N 36°42' W 000°01'1413.7
2015-May-10 06:33N 36°45' E 000°16'1313.5
2015-May-10 05:33N 36°47' E 000°33'1413.6
2015-May-10 04:33N 36°49' E 000°50'1312.9
2015-May-10 03:33N 36°51' E 001°06'1313.3
2015-May-10 02:33N 36°53' E 001°22'1312.6
2015-May-10 01:33N 36°55' E 001°38'1312.7
2015-May-10 00:33N 36°57' E 001°53'2713.2
2015-May-09 22:32N 37°01' E 002°26'2913.4
2015-May-09 20:22N 37°06' E 003°02'1613.0
2015-May-09 19:07N 37°08' E 003°22'1013.1
2015-May-09 18:23N 37°10' E 003°34'28713.1
2015-May-08 20:22N 37°39' E 009°34'2411.9
2015-May-08 18:23N 37°39' E 010°04'2412.7
2015-May-08 16:28N 37°35' E 010°34'1313.7
2015-May-08 15:33N 37°33' E 010°49'1413.9
2015-May-08 14:33N 37°29' E 011°06'1413.9
2015-May-08 13:33N 37°24' E 011°22'1414.0
2015-May-08 12:33N 37°19' E 011°39'1413.8
2015-May-08 11:33N 37°15' E 011°55'1913.5
2015-May-08 10:08N 37°08' E 012°18'3513.4
2015-May-08 07:33N 36°57' E 012°59'1313.3
2015-May-08 06:33N 36°52' E 013°14'1313.0
2015-May-08 05:33N 36°48' E 013°30'1313.0
2015-May-08 04:33N 36°43' E 013°45'1313.1
2015-May-08 03:33N 36°39' E 014°00'1313.2
2015-May-08 02:33N 36°35' E 014°16'1313.3
2015-May-08 01:33N 36°30' E 014°32'1312.9
2015-May-08 00:33N 36°29' E 014°48'1313.3
2015-May-07 23:33N 36°30' E 015°04'1512.0
2015-May-07 22:21N 36°36' E 015°21'16513.9
2015-May-07 10:28N 38°50' E 017°22'1913.9
2015-May-07 09:08N 39°04' E 017°38'1213.7
2015-May-07 08:17N 39°12' E 017°48'1013.7
2015-May-07 07:33N 39°19' E 017°57'1413.7
2015-May-07 06:33N 39°29' E 018°10'1413.8
2015-May-07 05:33N 39°39' E 018°22'1413.4
2015-May-07 04:31N 39°49' E 018°34'1212.9
2015-May-07 03:33N 40°00' E 018°42'1313.3
2015-May-07 02:33N 40°13' E 018°46'3812.5
2015-May-06 23:33N 40°46' E 018°22'7013.5
2015-May-06 18:22N 41°32' E 017°13'  
Track history (hours):
 
Tides and Currents Weather Stations Pressure Air Temp Water Temp Dewpoint Dewpoint Depression Visibility Wind Speed Wind Dir Waves Ship Positions

Palessa

Last reported at 2015-May-15 07:33 UTC. Time now 2015-May-26 11:49 UTC.
Position N 20°25' W 018°59'.
Warning: this ship's position is 11 days out of date.

Length 118 m; draft 5.3 m.

Type: Cargo ship. MMSI: 304255000.

Date/timePositionNaut miles runAvg speedWind from/ knotsBaromVisibWave heightAir tempDewpointWater temp
2015-May-15 07:33N 20°25' W 018°59'4213.9
2015-May-15 04:33N 21°02' W 018°40'  
2015-May-13 00:08N 30°50' W 011°33'1314.8
2015-May-12 23:14N 31°02' W 011°25'1114.8
2015-May-12 22:30N 31°11' W 011°19'1414.7
2015-May-12 21:33N 31°23' W 011°11'1514.4
2015-May-12 20:31N 31°36' W 011°02'3414.4
2015-May-12 18:09N 32°05' W 010°42'914.2
2015-May-12 17:31N 32°13' W 010°36'2813.8
2015-May-12 15:31N 32°37' W 010°20'1413.7
2015-May-12 14:29N 32°48' W 010°10'1314.0
2015-May-12 13:33N 32°59' W 010°01'2813.9
2015-May-12 11:30N 33°21' W 009°40'1313.9
2015-May-12 10:33N 33°29' W 009°28'1413.7
2015-May-12 09:33N 33°38' W 009°15'1413.9
2015-May-12 08:34N 33°47' W 009°02'1413.9
2015-May-12 07:33N 33°56' W 008°49'1413.9
2015-May-12 06:33N 34°05' W 008°36'1413.9
2015-May-12 05:33N 34°13' W 008°23'1413.6
2015-May-12 04:30N 34°23' W 008°10'1314.0
2015-May-12 03:33N 34°31' W 007°58'1413.6
2015-May-12 02:32N 34°40' W 007°45'2813.5
2015-May-12 00:27N 34°58' W 007°18'1313.7
2015-May-11 23:31N 35°06' W 007°06'9613.8
2015-May-11 16:31N 35°60' W 005°28'9 6.5
2015-May-11 15:08N 36°07' W 005°21'0 0.1
2015-May-11 14:32N 36°07' W 005°21'0 0.0
2015-May-11 12:29N 36°07' W 005°21'0 0.1
2015-May-11 11:29N 36°07' W 005°21'0 0.1
2015-May-11 09:33N 36°07' W 005°21'0 0.0
2015-May-11 08:30N 36°07' W 005°21'0 0.1
2015-May-11 07:06N 36°07' W 005°21'0 0.1
2015-May-11 06:25N 36°07' W 005°21'0 0.0
2015-May-11 05:33N 36°07' W 005°21'0 0.0
2015-May-11 04:33N 36°07' W 005°21'0 0.1
2015-May-11 03:30N 36°07' W 005°21'5 4.9
2015-May-11 02:33N 36°06' W 005°16'11512.8
2015-May-10 17:33N 36°26' W 002°55'1414.1
2015-May-10 16:33N 36°26' W 002°38'1414.0
2015-May-10 15:34N 36°26' W 002°20'1413.8
2015-May-10 14:32N 36°27' W 002°03'1413.9
2015-May-10 13:31N 36°29' W 001°45'4214.3
2015-May-10 10:34N 36°36' W 000°53'3014.3
2015-May-10 08:30N 36°40' W 000°17'1313.9
2015-May-10 07:33N 36°42' W 000°01'1413.7
2015-May-10 06:33N 36°45' E 000°16'1313.5
2015-May-10 05:33N 36°47' E 000°33'1413.6
2015-May-10 04:33N 36°49' E 000°50'1312.9
2015-May-10 03:33N 36°51' E 001°06'1313.3
2015-May-10 02:33N 36°53' E 001°22'1312.6
2015-May-10 01:33N 36°55' E 001°38'1312.7
2015-May-10 00:33N 36°57' E 001°53'2713.2
2015-May-09 22:32N 37°01' E 002°26'2913.4
2015-May-09 20:22N 37°06' E 003°02'1613.0
2015-May-09 19:07N 37°08' E 003°22'1013.1
2015-May-09 18:23N 37°10' E 003°34'28713.1
2015-May-08 20:22N 37°39' E 009°34'2411.9
2015-May-08 18:23N 37°39' E 010°04'2412.7
2015-May-08 16:28N 37°35' E 010°34'1313.7
2015-May-08 15:33N 37°33' E 010°49'1413.9
2015-May-08 14:33N 37°29' E 011°06'1413.9
2015-May-08 13:33N 37°24' E 011°22'1414.0
2015-May-08 12:33N 37°19' E 011°39'1413.8
2015-May-08 11:33N 37°15' E 011°55'1913.5
2015-May-08 10:08N 37°08' E 012°18'3513.4
2015-May-08 07:33N 36°57' E 012°59'1313.3
2015-May-08 06:33N 36°52' E 013°14'1313.0
2015-May-08 05:33N 36°48' E 013°30'1313.0
2015-May-08 04:33N 36°43' E 013°45'1313.1
2015-May-08 03:33N 36°39' E 014°00'1313.2
2015-May-08 02:33N 36°35' E 014°16'1313.3
2015-May-08 01:33N 36°30' E 014°32'1312.9
2015-May-08 00:33N 36°29' E 014°48'1313.3
2015-May-07 23:33N 36°30' E 015°04'1512.0
2015-May-07 22:21N 36°36' E 015°21'16513.9
2015-May-07 10:28N 38°50' E 017°22'1913.9
2015-May-07 09:08N 39°04' E 017°38'1213.7
2015-May-07 08:17N 39°12' E 017°48'1013.7
2015-May-07 07:33N 39°19' E 017°57'1413.7
2015-May-07 06:33N 39°29' E 018°10'1413.8
2015-May-07 05:33N 39°39' E 018°22'1413.4
2015-May-07 04:31N 39°49' E 018°34'1212.9
2015-May-07 03:33N 40°00' E 018°42'1313.3
2015-May-07 02:33N 40°13' E 018°46'3812.5
2015-May-06 23:33N 40°46' E 018°22'7013.5
2015-May-06 18:22N 41°32' E 017°13'  

Dump ship's entire track history